Time;durP1;ratioP1;P1;durP2;ratioP2;P2;SDS_P1;SDS_P2;PMS_P1;PMS_P2;Temp;Humidity;BMP_temperature;BMP_pressure;BME280_temperature;BME280_humidity;BME280_pressure;Samples;Min_cycle;Max_cycle;Signal;HPM_P1;HPM_P2
2022/04/26 03:37:46;;;;;;;16.42;8.00;;;7.90;99.90;;;;;;5084393;28;20051;-63
2022/04/26 03:40:12;;;;;;;16.42;8.32;;;7.90;99.90;;;;;;5081638;28;20040;-63
2022/04/26 03:42:38;;;;;;;14.30;8.02;;;7.90;99.90;;;;;;5084896;28;20059;-63
2022/04/26 03:45:04;;;;;;;17.95;8.00;;;7.90;99.90;;;;;;5079814;28;20048;-63
2022/04/26 03:47:29;;;;;;;14.02;7.22;;;7.90;99.90;;;;;;5082163;28;20507;-63
2022/04/26 03:49:55;;;;;;;17.67;7.72;;;8.00;99.90;;;;;;5079527;28;20227;-63
2022/04/26 03:52:21;;;;;;;14.52;8.35;;;8.00;99.90;;;;;;5080879;28;20040;-63
2022/04/26 03:54:46;;;;;;;15.55;7.95;;;7.90;99.90;;;;;;5083770;28;20069;-63
2022/04/26 03:57:12;;;;;;;16.05;7.90;;;7.90;99.90;;;;;;5086336;28;20456;-63
2022/04/26 03:59:37;;;;;;;14.48;7.13;;;7.90;99.90;;;;;;5086338;28;20464;-63
2022/04/26 04:02:03;;;;;;;18.65;8.02;;;7.90;99.90;;;;;;5083648;28;20551;-63
2022/04/26 04:04:29;;;;;;;15.15;7.75;;;7.90;99.90;;;;;;5084211;28;20127;-62
2022/04/26 04:06:54;;;;;;;16.20;7.90;;;7.80;99.90;;;;;;5084519;28;20115;-63
2022/04/26 04:09:20;;;;;;;15.55;7.47;;;7.80;99.90;;;;;;5084882;28;20043;-62
2022/04/26 04:11:45;;;;;;;14.15;7.30;;;7.80;99.90;;;;;;5085229;28;20120;-63
2022/04/26 04:14:11;;;;;;;15.93;7.88;;;7.80;99.90;;;;;;5082500;28;20434;-63
2022/04/26 04:16:37;;;;;;;13.73;6.57;;;7.80;99.90;;;;;;5085101;28;20518;-62
2022/04/26 04:19:17;;;;;;;15.30;7.40;;;7.80;99.90;;;;;;5083216;28;20120;-64
2022/04/26 04:21:45;;;;;;;17.08;7.03;;;7.90;99.90;;;;;;5076096;28;20044;-63
2022/04/26 04:24:11;;;;;;;12.23;7.13;;;7.80;99.90;;;;;;5080971;28;20059;-63
2022/04/26 04:26:37;;;;;;;13.93;7.38;;;7.80;99.90;;;;;;5086979;28;20044;-63
2022/04/26 04:29:03;;;;;;;16.77;6.95;;;7.80;99.90;;;;;;5082550;28;20142;-63
2022/04/26 04:31:28;;;;;;;15.48;7.30;;;7.80;99.90;;;;;;5079821;28;20271;-63
2022/04/26 04:33:54;;;;;;;18.67;7.88;;;7.80;99.90;;;;;;5080022;28;20412;-62
2022/04/26 04:36:19;;;;;;;16.60;8.07;;;7.80;99.90;;;;;;5083625;28;20040;-63
2022/04/26 04:38:45;;;;;;;16.45;8.05;;;7.80;99.90;;;;;;5086542;28;20040;-63
2022/04/26 04:41:10;;;;;;;19.00;8.00;;;7.70;99.90;;;;;;5079159;28;20048;-63
2022/04/26 04:43:36;;;;;;;14.02;7.47;;;7.80;99.90;;;;;;5086131;28;20376;-63
2022/04/26 04:46:02;;;;;;;15.85;7.72;;;7.80;99.90;;;;;;5083013;28;20120;-63
2022/04/26 04:48:28;;;;;;;17.70;8.05;;;7.80;99.90;;;;;;5078367;28;20048;-65
2022/04/26 04:50:54;;;;;;;14.70;8.30;;;7.80;99.90;;;;;;5074810;28;20435;-63
2022/04/26 04:53:20;;;;;;;12.25;7.78;;;7.80;99.90;;;;;;5080530;28;20068;-64
2022/04/26 04:55:46;;;;;;;16.27;8.40;;;7.90;99.90;;;;;;5077363;28;20079;-63
2022/04/26 04:58:11;;;;;;;16.95;7.55;;;7.90;99.90;;;;;;5083493;28;20079;-63
2022/04/26 05:00:37;;;;;;;14.10;7.85;;;7.90;99.90;;;;;;5082460;28;20552;-63
2022/04/26 05:03:04;;;;;;;16.20;7.93;;;7.90;99.90;;;;;;5084460;28;20048;-64
2022/04/26 05:05:29;;;;;;;17.38;7.88;;;7.90;99.90;;;;;;5091106;28;20067;-62
2022/04/26 05:07:56;;;;;;;13.93;7.60;;;7.90;99.90;;;;;;5094138;28;20074;-62
2022/04/26 05:10:21;;;;;;;14.63;6.70;;;7.90;99.90;;;;;;5087833;28;20056;-63
2022/04/26 05:12:47;;;;;;;12.38;6.85;;;8.00;99.90;;;;;;5085230;28;22064;-63
2022/04/26 05:15:12;;;;;;;17.33;7.30;;;8.00;99.90;;;;;;5076587;28;20040;-63
2022/04/26 05:17:38;;;;;;;18.75;7.25;;;8.00;99.90;;;;;;5074417;28;20040;-62
2022/04/26 05:20:05;;;;;;;12.18;6.40;;;8.00;99.90;;;;;;5075478;28;20068;-63
2022/04/26 05:22:30;;;;;;;13.98;7.07;;;8.10;99.90;;;;;;5075727;28;20055;-64
2022/04/26 05:24:57;;;;;;;11.23;6.53;;;8.10;99.90;;;;;;5074959;28;20044;-63
2022/04/26 05:27:27;;;;;;;14.02;6.40;;;8.10;99.90;;;;;;5073347;28;20156;-63
2022/04/26 05:29:54;;;;;;;16.90;6.30;;;8.10;99.90;;;;;;5075511;28;20042;-64
2022/04/26 05:32:24;;;;;;;14.00;7.05;;;8.10;99.90;;;;;;5074805;28;20120;-63
2022/04/26 05:35:00;;;;;;;16.85;6.43;;;8.20;99.90;;;;;;5078686;28;20094;-63
2022/04/26 05:37:27;;;;;;;13.80;6.10;;;8.10;99.90;;;;;;5083205;28;20079;-63
2022/04/26 05:39:53;;;;;;;15.20;6.70;;;8.20;99.90;;;;;;5085530;28;20123;-65
2022/04/26 05:42:18;;;;;;;12.15;6.20;;;8.10;99.90;;;;;;5084976;28;20413;-63
2022/04/26 05:44:44;;;;;;;14.05;6.15;;;8.10;99.90;;;;;;5088025;28;20443;-63
2022/04/26 05:47:10;;;;;;;12.45;6.15;;;8.10;99.90;;;;;;5082290;28;20036;-62
2022/04/26 05:49:36;;;;;;;16.10;6.40;;;8.10;99.90;;;;;;5080023;28;20044;-64
2022/04/26 05:52:03;;;;;;;11.18;5.30;;;8.00;99.90;;;;;;5085387;28;20492;-64
2022/04/26 05:54:29;;;;;;;14.20;5.80;;;8.10;99.90;;;;;;5089689;28;20052;-63
2022/04/26 05:56:55;;;;;;;11.63;5.40;;;8.10;99.90;;;;;;5088635;28;20146;-63
2022/04/26 05:59:21;;;;;;;10.52;5.30;;;8.10;99.90;;;;;;5089233;28;20162;-64
2022/04/26 06:01:47;;;;;;;16.27;5.82;;;8.10;99.90;;;;;;5086984;28;20070;-63
2022/04/26 06:04:13;;;;;;;13.05;5.80;;;8.20;99.90;;;;;;5090905;28;20044;-63
2022/04/26 06:06:39;;;;;;;14.65;5.47;;;8.20;99.90;;;;;;5091022;28;20089;-63
2022/04/26 06:09:05;;;;;;;14.77;5.45;;;8.20;99.90;;;;;;5090603;28;20052;-63
2022/04/26 06:11:32;;;;;;;10.57;5.30;;;8.30;99.90;;;;;;5091081;28;20040;-64
2022/04/26 06:13:58;;;;;;;14.93;6.03;;;8.30;99.90;;;;;;5087438;28;20372;-62
2022/04/26 06:16:23;;;;;;;12.90;5.60;;;8.40;99.90;;;;;;5091576;28;20051;-63
2022/04/26 06:18:49;;;;;;;10.93;5.45;;;8.40;99.90;;;;;;5086417;28;20048;-64
2022/04/26 06:21:15;;;;;;;8.77;4.60;;;8.50;99.90;;;;;;5084238;28;20146;-63
2022/04/26 06:23:41;;;;;;;10.57;5.20;;;8.60;99.90;;;;;;5090955;28;20082;-63
2022/04/26 06:26:07;;;;;;;12.68;5.60;;;8.70;99.90;;;;;;5091628;28;20035;-63
2022/04/26 06:28:33;;;;;;;15.48;5.90;;;8.80;99.90;;;;;;5089011;28;20048;-63
2022/04/26 06:30:58;;;;;;;10.68;5.47;;;8.80;99.90;;;;;;5090458;28;20205;-62
2022/04/26 06:33:24;;;;;;;13.13;5.75;;;8.80;99.90;;;;;;5089961;28;20044;-63
2022/04/26 06:35:50;;;;;;;12.60;5.40;;;8.80;99.90;;;;;;5086397;28;20051;-63
2022/04/26 06:38:18;;;;;;;11.95;5.30;;;8.90;99.90;;;;;;5087144;28;20048;-63
2022/04/26 06:40:47;;;;;;;12.98;5.22;;;8.80;99.90;;;;;;5088039;28;20081;-63
2022/04/26 06:43:13;;;;;;;12.27;5.70;;;8.90;99.90;;;;;;5088169;28;20040;-63
2022/04/26 06:45:39;;;;;;;12.45;4.90;;;8.90;99.90;;;;;;5090066;28;20086;-63
2022/04/26 06:48:08;;;;;;;12.18;4.85;;;8.90;99.90;;;;;;5090006;28;20068;-64
2022/04/26 06:50:34;;;;;;;10.57;5.07;;;9.10;99.90;;;;;;5089344;28;20503;-64
2022/04/26 06:53:00;;;;;;;12.60;5.28;;;9.20;99.90;;;;;;5085962;28;20242;-64
2022/04/26 06:55:25;;;;;;;10.57;5.10;;;9.40;99.90;;;;;;5091387;28;20081;-64
2022/04/26 06:57:51;;;;;;;9.60;5.07;;;9.40;99.90;;;;;;5090231;28;20067;-63
2022/04/26 07:00:16;;;;;;;12.05;5.38;;;9.50;99.90;;;;;;5090657;28;20051;-65
2022/04/26 07:02:42;;;;;;;11.35;4.82;;;9.60;99.90;;;;;;5087360;28;20041;-63
2022/04/26 07:05:09;;;;;;;11.65;4.90;;;9.70;99.90;;;;;;5088789;28;20044;-64
2022/04/26 07:07:34;;;;;;;9.23;4.35;;;9.80;99.90;;;;;;5088244;28;20055;-64
2022/04/26 07:10:00;;;;;;;8.77;4.03;;;9.80;99.90;;;;;;5088836;28;20040;-64
2022/04/26 07:12:26;;;;;;;8.80;4.05;;;9.70;99.90;;;;;;5088641;28;20108;-64
2022/04/26 07:14:51;;;;;;;12.10;4.20;;;9.70;99.90;;;;;;5090034;28;20061;-64
2022/04/26 07:17:17;;;;;;;10.55;4.20;;;9.70;99.90;;;;;;5089525;28;20036;-64
2022/04/26 07:19:43;;;;;;;9.35;3.50;;;9.70;99.90;;;;;;5088634;28;20150;-65
2022/04/26 07:22:09;;;;;;;10.15;3.63;;;9.60;99.90;;;;;;5088328;28;20048;-64
2022/04/26 07:24:35;;;;;;;11.52;3.75;;;9.60;99.90;;;;;;5088797;28;20086;-66
2022/04/26 07:27:01;;;;;;;12.13;3.60;;;9.60;99.90;;;;;;5091338;28;20495;-64
2022/04/26 07:29:27;;;;;;;11.25;3.72;;;9.60;99.90;;;;;;5085542;28;20040;-65
2022/04/26 07:31:52;;;;;;;9.00;3.40;;;9.60;99.90;;;;;;5085318;28;20158;-64
2022/04/26 07:34:21;;;;;;;12.25;3.72;;;9.80;99.90;;;;;;5090302;28;20047;-64
2022/04/26 07:37:02;;;;;;;9.48;3.63;;;9.90;99.90;;;;;;5090159;28;20377;-63
2022/04/26 07:39:29;;;;;;;8.65;3.70;;;10.10;99.90;;;;;;5088970;28;20062;-65
2022/04/26 07:41:56;;;;;;;8.10;3.90;;;10.20;99.90;;;;;;5091077;28;20040;-64
2022/04/26 07:44:21;;;;;;;8.93;3.58;;;10.40;99.90;;;;;;5088935;28;20087;-64
2022/04/26 07:46:49;;;;;;;10.85;3.50;;;10.60;99.90;;;;;;5090030;28;20059;-64
2022/04/26 07:49:16;;;;;;;9.68;3.60;;;10.70;99.90;;;;;;5089145;28;20051;-64
2022/04/26 07:51:43;;;;;;;8.95;3.60;;;10.70;99.90;;;;;;5088115;28;20353;-64
2022/04/26 07:54:11;;;;;;;8.98;3.63;;;10.70;99.90;;;;;;5090036;28;20044;-65
2022/04/26 07:56:37;;;;;;;11.20;3.90;;;10.90;99.90;;;;;;5090708;28;20109;-65
2022/04/26 07:59:03;;;;;;;8.23;3.30;;;10.90;99.90;;;;;;5089430;28;20107;-65
2022/04/26 08:01:33;;;;;;;9.63;3.80;;;11.00;99.90;;;;;;5089356;28;20517;-65
2022/04/26 08:03:59;;;;;;;6.15;2.95;;;11.10;99.90;;;;;;5089816;28;20039;-65
2022/04/26 08:06:25;;;;;;;8.55;3.17;;;11.10;99.90;;;;;;5088220;28;20126;-64
2022/04/26 08:08:51;;;;;;;8.68;3.20;;;11.10;99.90;;;;;;5089729;28;20048;-65
2022/04/26 08:11:16;;;;;;;11.23;3.65;;;11.10;99.90;;;;;;5088585;28;20051;-66
2022/04/26 08:13:43;;;;;;;7.40;3.75;;;11.00;99.90;;;;;;5090039;28;20169;-66
2022/04/26 08:16:09;;;;;;;9.65;3.75;;;11.00;99.90;;;;;;5088295;28;20047;-64
2022/04/26 08:18:36;;;;;;;9.43;3.40;;;11.00;99.90;;;;;;5090309;28;20036;-64
2022/04/26 08:21:02;;;;;;;9.90;3.75;;;11.00;99.90;;;;;;5087964;28;20055;-66
2022/04/26 08:23:27;;;;;;;10.35;3.88;;;11.10;99.90;;;;;;5090429;28;20524;-64
2022/04/26 08:28:37;;;;;;;10.45;3.75;;;11.10;99.90;;;;;;5088808;28;20044;-64
2022/04/26 08:31:05;;;;;;;7.32;3.05;;;11.00;99.90;;;;;;5087418;28;20040;-64
2022/04/26 08:33:34;;;;;;;8.43;3.42;;;10.90;99.90;;;;;;5088306;28;20040;-64
2022/04/26 08:36:00;;;;;;;8.23;3.20;;;11.00;99.90;;;;;;5087166;28;20105;-64
2022/04/26 08:38:25;;;;;;;7.20;3.25;;;11.10;99.90;;;;;;5088061;28;20048;-64
2022/04/26 08:40:51;;;;;;;10.25;3.33;;;11.10;99.90;;;;;;5090367;28;20504;-64
2022/04/26 08:43:16;;;;;;;7.97;3.35;;;11.10;99.90;;;;;;5088352;28;20116;-64
2022/04/26 08:45:46;;;;;;;6.43;3.20;;;11.10;99.90;;;;;;5078719;28;20047;-63
2022/04/26 08:50:59;;;;;;;8.38;3.72;;;11.40;99.90;;;;;;5086253;28;21479;-64
2022/04/26 08:53:26;;;;;;;7.60;3.53;;;11.50;99.90;;;;;;5088932;28;20052;-64
2022/04/26 08:55:53;;;;;;;8.95;3.40;;;11.60;99.90;;;;;;5089721;28;20533;-65
2022/04/26 08:58:20;;;;;;;9.73;3.63;;;11.70;99.90;;;;;;5089981;28;20427;-64
2022/04/26 09:01:10;;;;;;;6.75;2.95;;;11.80;99.90;;;;;;5089125;28;20111;-64
2022/04/26 09:03:37;;;;;;;8.20;2.88;;;11.80;99.90;;;;;;5088178;28;20044;-64
2022/04/26 09:06:08;;;;;;;6.38;2.75;;;11.90;99.90;;;;;;5088599;28;20036;-63
2022/04/26 09:08:38;;;;;;;8.32;2.53;;;11.90;98.00;;;;;;5090114;28;20068;-61
2022/04/26 09:11:18;;;;;;;6.55;3.08;;;11.80;98.90;;;;;;5088140;28;20052;-62
2022/04/26 09:13:43;;;;;;;6.93;2.97;;;11.90;99.90;;;;;;5078227;28;20039;-62
2022/04/26 09:16:17;;;;;;;6.78;3.05;;;12.00;99.90;;;;;;5089291;28;20047;-62
2022/04/26 09:19:00;;;;;;;8.63;3.30;;;12.00;99.90;;;;;;5089543;28;20040;-62
2022/04/26 09:21:28;;;;;;;6.63;2.70;;;11.90;99.90;;;;;;5087323;28;20129;-63
2022/04/26 09:23:59;;;;;;;7.32;2.92;;;12.20;99.90;;;;;;5088262;28;20604;-62
2022/04/26 09:26:35;;;;;;;12.18;3.78;;;12.20;99.90;;;;;;5088978;28;20459;-62
2022/04/26 09:29:02;;;;;;;5.95;2.70;;;12.40;99.20;;;;;;5088572;28;20404;-62
2022/04/26 09:31:30;;;;;;;6.43;2.95;;;12.40;98.20;;;;;;5085029;28;20088;-62
2022/04/26 09:34:09;;;;;;;6.45;3.20;;;12.50;98.30;;;;;;5085976;28;20040;-62
2022/04/26 09:36:46;;;;;;;10.80;3.20;;;12.70;98.50;;;;;;5088919;28;20044;-62
2022/04/26 09:39:17;;;;;;;6.55;2.60;;;12.80;97.80;;;;;;5088335;28;20254;-62
2022/04/26 09:41:48;;;;;;;6.13;2.45;;;13.00;98.50;;;;;;5089892;28;20066;-63
2022/04/26 09:44:14;;;;;;;7.72;3.00;;;12.90;91.10;;;;;;5089088;28;20055;-62
2022/04/26 09:46:42;;;;;;;7.63;2.35;;;12.80;91.70;;;;;;5092711;28;20092;-62
2022/04/26 09:49:10;;;;;;;7.65;3.10;;;12.50;94.70;;;;;;5091659;28;20035;-62
2022/04/26 09:51:39;;;;;;;7.50;2.83;;;12.40;95.20;;;;;;5091947;28;20040;-62
2022/04/26 09:54:05;;;;;;;6.55;2.95;;;12.50;95.70;;;;;;5090987;28;20424;-62
2022/04/26 09:56:31;;;;;;;6.47;2.63;;;12.60;94.90;;;;;;5091314;28;20066;-62
2022/04/26 09:59:00;;;;;;;8.88;2.70;;;12.80;96.40;;;;;;5091744;28;20094;-64
2022/04/26 10:01:47;;;;;;;7.32;2.42;;;12.90;95.70;;;;;;5091475;28;20781;-64
2022/04/26 10:04:19;;;;;;;6.07;2.50;;;12.90;93.50;;;;;;5088132;28;20051;-62
2022/04/26 10:06:49;;;;;;;9.32;2.72;;;13.10;92.20;;;;;;5089846;28;20440;-64
2022/04/26 10:09:15;;;;;;;6.05;2.50;;;13.30;91.50;;;;;;5092579;28;20429;-65
2022/04/26 10:11:41;;;;;;;6.88;2.55;;;13.40;91.30;;;;;;5092066;28;20050;-64
2022/04/26 10:14:08;;;;;;;6.10;2.58;;;13.70;92.10;;;;;;5089864;28;20386;-62
2022/04/26 10:16:34;;;;;;;6.40;2.47;;;13.80;92.40;;;;;;5090407;28;20450;-65
2022/04/26 10:19:07;;;;;;;8.10;2.78;;;13.40;89.40;;;;;;5072444;28;20074;-64
2022/04/26 10:21:35;;;;;;;6.57;2.83;;;13.40;86.80;;;;;;5086788;28;20044;-65
2022/04/26 10:24:04;;;;;;;5.22;2.40;;;13.40;87.00;;;;;;5081799;28;20055;-62
2022/04/26 10:26:35;;;;;;;6.43;2.45;;;13.50;85.80;;;;;;5092935;28;20094;-62
2022/04/26 10:29:06;;;;;;;4.80;2.20;;;13.50;85.40;;;;;;5088539;28;20036;-63
2022/04/26 10:31:36;;;;;;;5.97;2.30;;;13.50;81.30;;;;;;5088471;28;20452;-62
2022/04/26 10:34:26;;;;;;;5.32;2.50;;;13.80;86.50;;;;;;5087635;28;20098;-63
2022/04/26 10:37:09;;;;;;;6.95;2.67;;;13.70;80.10;;;;;;5084358;28;20097;-64
2022/04/26 10:39:38;;;;;;;6.00;2.20;;;13.70;83.90;;;;;;5090915;28;20073;-64
2022/04/26 10:42:07;;;;;;;6.25;2.30;;;13.70;84.40;;;;;;5087962;28;20100;-65
2022/04/26 10:44:41;;;;;;;5.22;1.98;;;13.70;83.40;;;;;;5090511;28;20055;-62
2022/04/26 10:47:07;;;;;;;6.22;2.40;;;13.90;82.30;;;;;;5091671;28;20079;-62
2022/04/26 10:49:32;;;;;;;7.93;2.45;;;14.10;80.10;;;;;;5090888;28;20075;-63
2022/04/26 10:52:18;;;;;;;6.60;2.50;;;14.40;81.20;;;;;;5088765;28;20177;-62
2022/04/26 10:54:51;;;;;;;6.40;2.40;;;14.70;82.00;;;;;;5091178;28;20499;-64
2022/04/26 10:57:20;;;;;;;5.47;2.53;;;14.50;81.40;;;;;;5087878;28;20068;-65
2022/04/26 10:59:49;;;;;;;6.88;2.30;;;14.40;82.60;;;;;;5090643;28;20105;-62
2022/04/26 11:02:19;;;;;;;6.22;2.00;;;14.40;82.60;;;;;;5090090;28;20093;-62
2022/04/26 11:04:45;;;;;;;5.88;1.80;;;14.20;79.50;;;;;;5089232;28;20415;-63
2022/04/26 11:07:18;;;;;;;6.13;2.53;;;14.30;80.40;;;;;;5091277;28;20040;-63
2022/04/26 11:09:49;;;;;;;6.72;2.20;;;14.20;78.20;;;;;;5085899;28;20044;-62
2022/04/26 11:12:18;;;;;;;7.18;2.38;;;14.30;78.40;;;;;;5090792;28;20083;-63
2022/04/26 11:14:45;;;;;;;5.70;2.13;;;14.40;77.40;;;;;;5087658;28;20066;-64
2022/04/26 11:17:11;;;;;;;5.07;1.80;;;14.20;71.30;;;;;;5090095;28;20044;-62
2022/04/26 11:19:38;;;;;;;5.00;2.15;;;14.30;68.30;;;;;;5089175;28;20130;-64
2022/04/26 11:22:14;;;;;;;5.38;2.42;;;14.40;70.30;;;;;;5090668;28;20040;-64
2022/04/26 11:30:10;;;;;;;4.95;1.95;;;14.70;72.90;;;;;;5088890;28;20044;-63
2022/04/26 11:32:43;;;;;;;6.43;2.50;;;14.30;71.40;;;;;;5089974;28;20032;-62
2022/04/26 11:35:15;;;;;;;4.28;2.10;;;14.30;72.40;;;;;;5087012;28;20060;-63
2022/04/26 11:37:49;;;;;;;6.18;2.30;;;14.40;72.90;;;;;;5089787;28;20050;-64
2022/04/26 11:40:23;;;;;;;5.00;2.20;;;14.50;71.10;;;;;;5090176;28;20040;-63
2022/04/26 11:42:49;;;;;;;5.47;2.53;;;14.80;71.20;;;;;;5090074;28;20032;-63
2022/04/26 11:45:15;;;;;;;5.07;2.10;;;15.00;69.60;;;;;;5084879;28;20367;-63
2022/04/26 11:47:59;;;;;;;6.40;2.20;;;15.10;67.40;;;;;;5088158;28;20055;-63
2022/04/26 11:50:29;;;;;;;5.30;2.00;;;15.30;66.10;;;;;;5089701;28;20131;-63
2022/04/26 11:53:06;;;;;;;7.00;2.55;;;15.30;66.90;;;;;;5089276;28;20488;-63
2022/04/26 11:55:34;;;;;;;6.05;2.20;;;15.00;66.60;;;;;;5090056;28;20066;-64
2022/04/26 11:58:07;;;;;;;5.47;2.10;;;14.90;67.60;;;;;;5089903;28;20063;-63
2022/04/26 12:00:33;;;;;;;6.22;2.20;;;14.90;66.60;;;;;;5090647;28;20115;-63
2022/04/26 12:03:00;;;;;;;4.80;2.20;;;14.90;66.40;;;;;;5089147;28;20047;-63
2022/04/26 12:05:26;;;;;;;4.63;2.03;;;15.00;67.40;;;;;;5088540;28;20082;-62
2022/04/26 12:07:53;;;;;;;6.88;2.15;;;15.20;67.40;;;;;;5088937;28;20355;-63
2022/04/26 12:10:26;;;;;;;5.10;2.00;;;15.20;66.80;;;;;;5078436;28;20051;-63
2022/04/26 12:13:03;;;;;;;4.15;2.00;;;15.30;64.20;;;;;;5069811;28;20120;-63
2022/04/26 12:15:30;;;;;;;6.00;2.30;;;15.30;63.50;;;;;;5057449;28;20052;-62
2022/04/26 12:18:13;;;;;;;5.80;2.20;;;15.60;63.50;;;;;;5086669;28;20059;-63
2022/04/26 12:20:59;;;;;;;6.55;2.20;;;15.80;62.60;;;;;;5087653;28;20047;-63
2022/04/26 12:23:26;;;;;;;4.80;2.10;;;15.80;61.10;;;;;;5089360;28;20507;-63
2022/04/26 12:26:02;;;;;;;5.00;1.95;;;15.70;62.30;;;;;;5087983;28;20090;-63
2022/04/26 12:28:28;;;;;;;6.47;2.20;;;15.30;59.30;;;;;;5086586;28;20044;-63
2022/04/26 12:30:55;;;;;;;5.88;2.30;;;15.30;61.10;;;;;;5074785;28;20091;-64
2022/04/26 12:33:25;;;;;;;5.07;2.22;;;15.30;61.70;;;;;;5069721;28;20109;-63
2022/04/26 12:36:05;;;;;;;4.68;2.05;;;15.40;63.60;;;;;;5078887;28;20040;-63
2022/04/26 12:38:47;;;;;;;5.10;2.50;;;15.10;63.90;;;;;;5089587;28;20112;-64
2022/04/26 12:41:13;;;;;;;4.60;2.20;;;14.90;62.50;;;;;;5089560;28;20197;-63
2022/04/26 12:43:39;;;;;;;5.70;2.55;;;14.90;65.10;;;;;;5090339;28;20040;-63
2022/04/26 12:46:06;;;;;;;4.45;2.00;;;15.20;65.20;;;;;;5087446;28;20044;-63
2022/04/26 12:51:25;;;;;;;6.18;2.00;;;15.60;63.20;;;;;;5088192;28;20105;-64
2022/04/26 12:53:51;;;;;;;4.28;2.03;;;15.60;61.80;;;;;;5089094;28;20101;-63
2022/04/26 12:56:19;;;;;;;4.30;1.90;;;15.40;62.10;;;;;;5086111;28;20129;-63
2022/04/26 12:58:47;;;;;;;5.18;2.40;;;15.30;61.60;;;;;;5087355;28;20375;-64
2022/04/26 13:01:14;;;;;;;4.50;1.95;;;15.20;60.40;;;;;;5085741;28;20492;-63
2022/04/26 13:03:41;;;;;;;5.50;2.28;;;15.50;61.90;;;;;;5089660;28;20060;-63
2022/04/26 13:06:18;;;;;;;4.68;2.22;;;15.50;62.10;;;;;;5087374;28;20039;-63
2022/04/26 13:08:46;;;;;;;5.80;2.38;;;15.50;60.90;;;;;;5087968;28;20047;-63
2022/04/26 13:11:12;;;;;;;5.93;2.10;;;15.30;61.40;;;;;;5088802;28;20092;-63
2022/04/26 13:13:39;;;;;;;6.82;2.15;;;15.40;61.90;;;;;;5089843;28;20428;-63
2022/04/26 13:16:05;;;;;;;5.85;2.13;;;15.00;58.90;;;;;;5088034;28;20088;-63
2022/04/26 13:18:32;;;;;;;6.90;2.00;;;15.10;61.40;;;;;;5090318;28;20039;-63
2022/04/26 13:20:58;;;;;;;5.28;2.28;;;15.40;62.70;;;;;;5091720;28;20032;-63
2022/04/26 13:23:24;;;;;;;5.30;2.38;;;15.50;61.80;;;;;;5092266;28;20028;-62
2022/04/26 13:25:51;;;;;;;5.28;2.08;;;15.10;61.00;;;;;;5088334;28;20444;-63
2022/04/26 13:28:16;;;;;;;5.32;2.33;;;15.20;62.30;;;;;;5091818;28;20502;-64
2022/04/26 13:30:42;;;;;;;5.53;2.10;;;15.40;62.50;;;;;;5092035;28;20044;-64
2022/04/26 13:33:08;;;;;;;7.22;2.30;;;15.40;62.40;;;;;;5089121;28;20044;-64
2022/04/26 13:35:37;;;;;;;4.50;2.20;;;15.40;60.90;;;;;;5088146;28;20456;-63
2022/04/26 13:38:09;;;;;;;3.58;1.98;;;15.60;61.20;;;;;;5092677;28;20067;-65
2022/04/26 13:40:37;;;;;;;6.25;2.30;;;15.80;61.10;;;;;;5092807;28;20036;-64
2022/04/26 13:43:03;;;;;;;5.43;2.25;;;16.00;59.80;;;;;;5090098;28;20563;-65
2022/04/26 13:45:28;;;;;;;4.40;2.20;;;16.00;59.50;;;;;;5089268;28;20044;-63
2022/04/26 13:47:54;;;;;;;5.97;2.22;;;16.00;58.40;;;;;;5090534;28;20048;-63
2022/04/26 13:50:20;;;;;;;6.43;2.60;;;16.20;58.80;;;;;;5090196;28;20036;-63
2022/04/26 13:52:45;;;;;;;5.47;2.38;;;16.00;59.00;;;;;;5091727;28;20048;-63
2022/04/26 13:55:15;;;;;;;5.90;2.13;;;15.80;60.10;;;;;;5089857;28;20426;-62
2022/04/26 13:57:43;;;;;;;4.13;2.05;;;15.60;60.60;;;;;;5090819;28;20097;-63
2022/04/26 14:00:11;;;;;;;4.47;2.22;;;15.30;60.00;;;;;;5090436;28;20424;-63
2022/04/26 14:02:37;;;;;;;6.15;2.50;;;15.30;60.20;;;;;;5091691;28;20071;-63
2022/04/26 14:05:04;;;;;;;4.82;2.25;;;15.30;60.60;;;;;;5090040;28;20064;-64
2022/04/26 14:07:29;;;;;;;5.30;2.20;;;15.30;60.80;;;;;;5091880;28;20052;-63
2022/04/26 14:09:55;;;;;;;6.10;2.20;;;15.60;60.70;;;;;;5092860;28;20040;-63
2022/04/26 14:12:20;;;;;;;6.38;2.17;;;15.70;58.00;;;;;;5085984;28;20049;-63
2022/04/26 14:22:59;;;;;;;3.92;1.98;;;15.90;60.00;;;;;;5082670;28;20095;-64
2022/04/26 14:25:24;;;;;;;5.32;2.20;;;16.10;59.50;;;;;;5071814;28;20448;-63
2022/04/26 14:27:51;;;;;;;6.03;2.25;;;16.20;59.20;;;;;;5087729;28;20035;-64
2022/04/26 14:30:16;;;;;;;4.78;2.20;;;16.30;58.00;;;;;;5089579;28;20044;-64
2022/04/26 14:32:44;;;;;;;5.20;2.17;;;16.20;57.40;;;;;;5076345;28;20124;-64
2022/04/26 14:35:10;;;;;;;3.63;1.98;;;16.10;58.10;;;;;;5086452;28;20120;-64
2022/04/26 14:37:36;;;;;;;7.70;2.15;;;15.90;58.30;;;;;;5087991;28;20036;-62
2022/04/26 14:40:03;;;;;;;4.90;2.20;;;15.70;57.90;;;;;;5090527;28;20412;-64
2022/04/26 14:42:29;;;;;;;4.95;2.17;;;15.40;57.70;;;;;;5090248;28;20044;-63
2022/04/26 14:44:55;;;;;;;4.38;2.13;;;15.70;58.00;;;;;;5082563;28;20123;-62
2022/04/26 14:47:21;;;;;;;6.82;2.33;;;15.80;57.70;;;;;;5087752;28;20491;-64
2022/04/26 14:49:47;;;;;;;5.53;2.20;;;16.10;57.30;;;;;;5086865;28;20044;-63
2022/04/26 14:52:21;;;;;;;5.78;2.17;;;15.80;56.70;;;;;;5087891;28;20147;-63
2022/04/26 14:54:47;;;;;;;5.57;2.40;;;15.90;58.80;;;;;;5085011;28;20043;-63
2022/04/26 14:57:12;;;;;;;5.80;2.22;;;15.70;59.20;;;;;;5087276;28;20052;-63
2022/04/26 14:59:46;;;;;;;5.65;2.38;;;15.60;59.80;;;;;;5090342;28;20424;-64
2022/04/26 15:02:13;;;;;;;5.25;2.25;;;15.50;60.20;;;;;;5080610;28;20040;-63
2022/04/26 15:04:39;;;;;;;5.63;2.30;;;15.40;59.90;;;;;;5090456;28;20044;-63
2022/04/26 15:07:05;;;;;;;4.95;2.13;;;15.40;60.30;;;;;;5090217;28;20052;-63
2022/04/26 15:09:43;;;;;;;6.18;2.17;;;15.30;60.50;;;;;;5089153;28;20048;-63
2022/04/26 15:17:44;;;;;;;4.95;2.38;;;14.90;61.80;;;;;;5085878;28;20139;-63
2022/04/26 15:20:10;;;;;;;5.32;2.30;;;14.50;61.90;;;;;;5088756;28;20044;-63
2022/04/26 15:22:37;;;;;;;7.63;2.13;;;14.60;63.30;;;;;;5078870;28;20036;-62
2022/04/26 15:25:05;;;;;;;5.60;2.40;;;14.60;63.40;;;;;;5087716;28;20048;-65
2022/04/26 15:27:30;;;;;;;5.57;2.60;;;14.80;64.30;;;;;;5088685;28;20527;-63
2022/04/26 15:29:56;;;;;;;6.00;2.55;;;15.00;63.90;;;;;;5090629;28;20043;-63
2022/04/26 15:32:23;;;;;;;5.60;2.17;;;15.30;64.20;;;;;;5085369;28;20056;-63
2022/04/26 15:34:49;;;;;;;7.10;2.75;;;15.60;64.80;;;;;;5082868;28;20040;-64
2022/04/26 15:37:15;;;;;;;4.78;2.25;;;15.80;63.30;;;;;;5088496;28;20047;-62
2022/04/26 15:39:42;;;;;;;5.80;2.47;;;16.00;63.30;;;;;;5088962;28;20036;-63
2022/04/26 15:42:08;;;;;;;5.53;2.58;;;16.20;63.10;;;;;;5088575;28;20044;-63
2022/04/26 15:44:34;;;;;;;5.75;2.40;;;16.20;61.00;;;;;;5089311;28;20048;-63
2022/04/26 15:47:00;;;;;;;5.40;2.30;;;16.10;60.60;;;;;;5090832;28;20054;-65
2022/04/26 15:49:26;;;;;;;6.18;2.50;;;16.10;61.70;;;;;;5087292;28;20535;-63
2022/04/26 15:51:52;;;;;;;6.70;2.50;;;16.30;61.60;;;;;;5088671;28;20050;-63
2022/04/26 15:54:18;;;;;;;6.78;2.53;;;16.40;61.20;;;;;;5087974;28;20071;-63
2022/04/26 15:56:45;;;;;;;6.30;2.65;;;16.40;61.00;;;;;;5085541;28;20041;-64
2022/04/26 15:59:11;;;;;;;7.72;2.72;;;16.20;60.50;;;;;;5086977;28;20036;-63
2022/04/26 16:01:39;;;;;;;5.75;2.85;;;16.20;60.60;;;;;;5088728;28;20507;-64
2022/04/26 16:04:05;;;;;;;6.78;2.40;;;16.20;60.50;;;;;;5088548;28;20729;-64
2022/04/26 16:06:32;;;;;;;5.97;2.50;;;16.30;60.90;;;;;;5089175;28;20036;-64
2022/04/26 16:20:28;;;;;;;5.05;2.50;;;16.30;61.00;;;;;;5089812;28;20051;-66
2022/04/26 16:22:40;;;;;;;4.93;2.25;;;15.90;59.20;;;;;;5086913;28;20059;-64
2022/04/26 16:25:07;;;;;;;7.32;2.65;;;15.70;59.00;;;;;;5086571;28;20040;-63
2022/04/26 16:27:32;;;;;;;5.30;2.53;;;15.50;60.00;;;;;;5087583;28;20032;-64
2022/04/26 16:30:00;;;;;;;6.00;2.67;;;15.40;60.00;;;;;;5086104;28;20513;-65
2022/04/26 16:32:27;;;;;;;7.90;2.50;;;15.40;60.00;;;;;;5084795;28;20472;-65
2022/04/26 16:34:53;;;;;;;7.03;2.67;;;15.40;60.80;;;;;;5086309;28;20105;-64
2022/04/26 16:37:19;;;;;;;5.35;2.78;;;15.40;60.40;;;;;;5074587;28;20125;-65
2022/04/26 16:39:44;;;;;;;5.03;2.45;;;15.30;60.70;;;;;;5087485;28;20039;-67
2022/04/26 16:42:10;;;;;;;4.70;2.47;;;15.20;60.80;;;;;;5088057;28;20036;-65
2022/04/26 16:44:35;;;;;;;5.07;2.53;;;15.30;60.80;;;;;;5088759;28;20468;-66
2022/04/26 16:47:01;;;;;;;5.55;2.70;;;15.40;61.00;;;;;;5082375;28;20190;-67
2022/04/26 16:49:26;;;;;;;5.63;2.60;;;15.30;61.30;;;;;;5082659;28;20533;-65
2022/04/26 16:51:52;;;;;;;5.97;2.50;;;15.40;61.70;;;;;;5083122;28;20080;-66
2022/04/26 16:54:18;;;;;;;5.60;2.60;;;15.40;61.40;;;;;;5092061;28;20111;-66
2022/04/26 16:56:44;;;;;;;5.93;2.53;;;15.40;61.80;;;;;;5082075;28;20484;-65
2022/04/26 16:59:09;;;;;;;6.53;2.60;;;15.60;61.60;;;;;;5085286;28;21445;-64
2022/04/26 17:01:35;;;;;;;6.15;2.58;;;15.50;61.40;;;;;;5089174;28;20035;-64
2022/04/26 17:04:03;;;;;;;9.90;2.90;;;15.50;61.60;;;;;;5091597;28;20090;-65
2022/04/26 17:06:29;;;;;;;7.07;2.38;;;15.40;61.90;;;;;;5092418;28;20071;-65